sensor_id;sensor_type;location;lat;lon;timestamp;temperature;humidity
28608;DHT22;15802;45.654;13.804;2022-08-21T00:01:58;24.10;99.90
28608;DHT22;15802;45.654;13.804;2022-08-21T00:04:24;24.10;99.90
28608;DHT22;15802;45.654;13.804;2022-08-21T00:06:50;24.10;99.90
28608;DHT22;15802;45.654;13.804;2022-08-21T00:09:16;24.10;99.90
28608;DHT22;15802;45.654;13.804;2022-08-21T00:11:42;24.10;99.90
28608;DHT22;15802;45.654;13.804;2022-08-21T00:14:08;24.10;99.90
28608;DHT22;15802;45.654;13.804;2022-08-21T00:16:34;24.10;99.90
28608;DHT22;15802;45.654;13.804;2022-08-21T00:19:00;24.10;99.90
28608;DHT22;15802;45.654;13.804;2022-08-21T00:21:26;24.00;99.90
28608;DHT22;15802;45.654;13.804;2022-08-21T00:23:52;24.00;99.90
28608;DHT22;15802;45.654;13.804;2022-08-21T00:26:18;24.00;99.90
28608;DHT22;15802;45.654;13.804;2022-08-21T00:28:44;24.10;99.90
28608;DHT22;15802;45.654;13.804;2022-08-21T00:31:11;24.10;99.90
28608;DHT22;15802;45.654;13.804;2022-08-21T00:33:37;24.20;99.90
28608;DHT22;15802;45.654;13.804;2022-08-21T00:36:03;24.20;99.90
28608;DHT22;15802;45.654;13.804;2022-08-21T00:38:29;24.20;99.90
28608;DHT22;15802;45.654;13.804;2022-08-21T00:40:57;24.20;99.90
28608;DHT22;15802;45.654;13.804;2022-08-21T00:43:24;24.20;99.90
28608;DHT22;15802;45.654;13.804;2022-08-21T00:45:51;24.20;99.90
28608;DHT22;15802;45.654;13.804;2022-08-21T00:48:18;24.20;99.90
28608;DHT22;15802;45.654;13.804;2022-08-21T00:50:48;24.20;99.90
28608;DHT22;15802;45.654;13.804;2022-08-21T00:53:15;24.20;99.90
28608;DHT22;15802;45.654;13.804;2022-08-21T00:55:41;24.30;99.90
28608;DHT22;15802;45.654;13.804;2022-08-21T00:58:07;24.30;99.90
28608;DHT22;15802;45.654;13.804;2022-08-21T01:00:36;24.20;99.90
28608;DHT22;15802;45.654;13.804;2022-08-21T01:03:05;24.30;99.90
28608;DHT22;15802;45.654;13.804;2022-08-21T01:05:31;24.30;99.90
28608;DHT22;15802;45.654;13.804;2022-08-21T01:07:57;24.20;99.90
28608;DHT22;15802;45.654;13.804;2022-08-21T01:10:23;24.30;99.90
28608;DHT22;15802;45.654;13.804;2022-08-21T01:12:49;24.30;99.90
28608;DHT22;15802;45.654;13.804;2022-08-21T01:15:16;24.20;99.90
28608;DHT22;15802;45.654;13.804;2022-08-21T01:17:42;24.20;99.90
28608;DHT22;15802;45.654;13.804;2022-08-21T01:20:09;24.20;99.90
28608;DHT22;15802;45.654;13.804;2022-08-21T01:22:35;24.10;99.90
28608;DHT22;15802;45.654;13.804;2022-08-21T01:25:03;24.10;99.90
28608;DHT22;15802;45.654;13.804;2022-08-21T01:27:29;24.10;99.90
28608;DHT22;15802;45.654;13.804;2022-08-21T01:29:57;24.10;99.90
28608;DHT22;15802;45.654;13.804;2022-08-21T01:32:23;24.10;99.90
28608;DHT22;15802;45.654;13.804;2022-08-21T01:34:50;24.10;99.90
28608;DHT22;15802;45.654;13.804;2022-08-21T01:37:16;24.00;99.90
28608;DHT22;15802;45.654;13.804;2022-08-21T01:39:42;24.00;99.90
28608;DHT22;15802;45.654;13.804;2022-08-21T01:42:08;24.00;99.90
28608;DHT22;15802;45.654;13.804;2022-08-21T01:44:33;23.90;99.90
28608;DHT22;15802;45.654;13.804;2022-08-21T01:47:00;23.90;99.90
28608;DHT22;15802;45.654;13.804;2022-08-21T01:49:26;23.90;99.90
28608;DHT22;15802;45.654;13.804;2022-08-21T01:51:52;23.80;99.90
28608;DHT22;15802;45.654;13.804;2022-08-21T01:54:18;23.80;99.90
28608;DHT22;15802;45.654;13.804;2022-08-21T01:56:45;23.80;99.90
28608;DHT22;15802;45.654;13.804;2022-08-21T01:59:12;23.70;99.90
28608;DHT22;15802;45.654;13.804;2022-08-21T02:01:37;23.70;99.90
28608;DHT22;15802;45.654;13.804;2022-08-21T02:04:05;23.60;99.90
28608;DHT22;15802;45.654;13.804;2022-08-21T02:06:30;23.70;99.90
28608;DHT22;15802;45.654;13.804;2022-08-21T02:08:57;23.60;99.90
28608;DHT22;15802;45.654;13.804;2022-08-21T02:11:22;23.60;99.90
28608;DHT22;15802;45.654;13.804;2022-08-21T02:13:49;23.50;99.90
28608;DHT22;15802;45.654;13.804;2022-08-21T02:16:15;23.50;99.90
28608;DHT22;15802;45.654;13.804;2022-08-21T02:18:40;23.50;99.90
28608;DHT22;15802;45.654;13.804;2022-08-21T02:21:06;23.50;99.90
28608;DHT22;15802;45.654;13.804;2022-08-21T02:23:32;23.40;99.90
28608;DHT22;15802;45.654;13.804;2022-08-21T02:25:59;23.30;99.90
28608;DHT22;15802;45.654;13.804;2022-08-21T02:28:25;23.10;99.90
28608;DHT22;15802;45.654;13.804;2022-08-21T02:30:51;23.00;99.90
28608;DHT22;15802;45.654;13.804;2022-08-21T02:33:17;22.90;99.90
28608;DHT22;15802;45.654;13.804;2022-08-21T02:35:44;22.80;99.90
28608;DHT22;15802;45.654;13.804;2022-08-21T02:38:11;22.70;99.90
28608;DHT22;15802;45.654;13.804;2022-08-21T02:40:38;22.60;99.90
28608;DHT22;15802;45.654;13.804;2022-08-21T02:43:05;22.50;99.90
28608;DHT22;15802;45.654;13.804;2022-08-21T02:45:31;22.40;99.90
28608;DHT22;15802;45.654;13.804;2022-08-21T02:47:59;22.40;99.90
28608;DHT22;15802;45.654;13.804;2022-08-21T02:50:27;22.30;99.90
28608;DHT22;15802;45.654;13.804;2022-08-21T02:52:53;22.30;99.90
28608;DHT22;15802;45.654;13.804;2022-08-21T02:55:19;22.30;99.90
28608;DHT22;15802;45.654;13.804;2022-08-21T02:57:46;22.30;99.90
28608;DHT22;15802;45.654;13.804;2022-08-21T03:00:12;22.30;99.90
28608;DHT22;15802;45.654;13.804;2022-08-21T03:02:39;22.30;99.90
28608;DHT22;15802;45.654;13.804;2022-08-21T03:05:05;22.10;99.90
28608;DHT22;15802;45.654;13.804;2022-08-21T03:07:31;22.00;99.90
28608;DHT22;15802;45.654;13.804;2022-08-21T03:09:57;21.80;99.90
28608;DHT22;15802;45.654;13.804;2022-08-21T03:12:23;21.80;99.90
28608;DHT22;15802;45.654;13.804;2022-08-21T03:14:49;21.70;99.90
28608;DHT22;15802;45.654;13.804;2022-08-21T03:17:14;21.70;99.90
28608;DHT22;15802;45.654;13.804;2022-08-21T03:19:40;21.70;99.90
28608;DHT22;15802;45.654;13.804;2022-08-21T03:22:06;21.70;99.90
28608;DHT22;15802;45.654;13.804;2022-08-21T03:24:31;21.60;99.90
28608;DHT22;15802;45.654;13.804;2022-08-21T03:26:57;21.60;99.90
28608;DHT22;15802;45.654;13.804;2022-08-21T03:29:23;21.50;99.90
28608;DHT22;15802;45.654;13.804;2022-08-21T03:31:49;21.60;99.90
28608;DHT22;15802;45.654;13.804;2022-08-21T03:34:14;21.60;99.90
28608;DHT22;15802;45.654;13.804;2022-08-21T03:36:40;21.50;99.90
28608;DHT22;15802;45.654;13.804;2022-08-21T03:39:06;21.50;99.90
28608;DHT22;15802;45.654;13.804;2022-08-21T03:41:32;21.40;99.90
28608;DHT22;15802;45.654;13.804;2022-08-21T03:43:57;21.30;99.90
28608;DHT22;15802;45.654;13.804;2022-08-21T03:46:24;21.30;99.90
28608;DHT22;15802;45.654;13.804;2022-08-21T03:48:50;21.40;99.90
28608;DHT22;15802;45.654;13.804;2022-08-21T03:51:17;21.40;99.90
28608;DHT22;15802;45.654;13.804;2022-08-21T03:53:43;21.30;99.90
28608;DHT22;15802;45.654;13.804;2022-08-21T03:56:10;21.30;99.90
28608;DHT22;15802;45.654;13.804;2022-08-21T03:58:36;21.20;99.90
28608;DHT22;15802;45.654;13.804;2022-08-21T04:01:05;21.10;99.90
28608;DHT22;15802;45.654;13.804;2022-08-21T04:03:31;21.00;99.90
28608;DHT22;15802;45.654;13.804;2022-08-21T04:05:57;21.10;99.90
28608;DHT22;15802;45.654;13.804;2022-08-21T04:08:23;21.00;99.90
28608;DHT22;15802;45.654;13.804;2022-08-21T04:10:50;20.90;99.90
28608;DHT22;15802;45.654;13.804;2022-08-21T04:13:16;20.90;99.90
28608;DHT22;15802;45.654;13.804;2022-08-21T04:15:41;20.80;99.90
28608;DHT22;15802;45.654;13.804;2022-08-21T04:18:07;20.90;99.90
28608;DHT22;15802;45.654;13.804;2022-08-21T04:20:34;20.80;99.90
28608;DHT22;15802;45.654;13.804;2022-08-21T04:23:00;20.80;99.90
28608;DHT22;15802;45.654;13.804;2022-08-21T04:25:26;20.90;99.90
28608;DHT22;15802;45.654;13.804;2022-08-21T04:27:52;20.80;99.90
28608;DHT22;15802;45.654;13.804;2022-08-21T04:30:18;20.70;99.90
28608;DHT22;15802;45.654;13.804;2022-08-21T04:32:45;20.80;99.90
28608;DHT22;15802;45.654;13.804;2022-08-21T04:35:11;20.70;99.90
28608;DHT22;15802;45.654;13.804;2022-08-21T04:37:37;20.80;99.90
28608;DHT22;15802;45.654;13.804;2022-08-21T04:40:03;20.70;99.90
28608;DHT22;15802;45.654;13.804;2022-08-21T04:42:29;20.80;99.90
28608;DHT22;15802;45.654;13.804;2022-08-21T04:44:55;20.80;99.90
28608;DHT22;15802;45.654;13.804;2022-08-21T04:47:21;20.80;99.90
28608;DHT22;15802;45.654;13.804;2022-08-21T04:49:48;20.80;99.90
28608;DHT22;15802;45.654;13.804;2022-08-21T04:52:14;20.90;99.90
28608;DHT22;15802;45.654;13.804;2022-08-21T04:54:41;20.90;99.90
28608;DHT22;15802;45.654;13.804;2022-08-21T04:57:08;20.90;99.90
28608;DHT22;15802;45.654;13.804;2022-08-21T04:59:38;21.00;99.90
28608;DHT22;15802;45.654;13.804;2022-08-21T05:02:05;20.90;99.90
28608;DHT22;15802;45.654;13.804;2022-08-21T05:04:32;20.90;99.90
28608;DHT22;15802;45.654;13.804;2022-08-21T05:06:59;20.90;99.90
28608;DHT22;15802;45.654;13.804;2022-08-21T05:09:26;21.00;99.90
28608;DHT22;15802;45.654;13.804;2022-08-21T05:11:52;21.00;99.90
28608;DHT22;15802;45.654;13.804;2022-08-21T05:14:18;21.10;99.90
28608;DHT22;15802;45.654;13.804;2022-08-21T05:16:44;21.00;99.90
28608;DHT22;15802;45.654;13.804;2022-08-21T05:19:11;21.10;99.90
28608;DHT22;15802;45.654;13.804;2022-08-21T05:21:37;21.10;99.90
28608;DHT22;15802;45.654;13.804;2022-08-21T05:24:03;21.20;99.90
28608;DHT22;15802;45.654;13.804;2022-08-21T05:26:29;21.10;99.90
28608;DHT22;15802;45.654;13.804;2022-08-21T05:28:55;21.10;99.90
28608;DHT22;15802;45.654;13.804;2022-08-21T05:31:21;21.10;99.90
28608;DHT22;15802;45.654;13.804;2022-08-21T05:33:47;21.20;99.90
28608;DHT22;15802;45.654;13.804;2022-08-21T05:36:13;21.20;99.90
28608;DHT22;15802;45.654;13.804;2022-08-21T05:38:39;21.20;99.90
28608;DHT22;15802;45.654;13.804;2022-08-21T05:41:04;21.10;99.90
28608;DHT22;15802;45.654;13.804;2022-08-21T05:43:30;21.10;99.90
28608;DHT22;15802;45.654;13.804;2022-08-21T05:45:58;21.10;99.90
28608;DHT22;15802;45.654;13.804;2022-08-21T05:48:24;21.10;99.90
28608;DHT22;15802;45.654;13.804;2022-08-21T05:50:50;21.10;99.90
28608;DHT22;15802;45.654;13.804;2022-08-21T05:53:17;21.10;99.90
28608;DHT22;15802;45.654;13.804;2022-08-21T05:55:43;21.10;99.90
28608;DHT22;15802;45.654;13.804;2022-08-21T05:58:09;21.20;99.90
28608;DHT22;15802;45.654;13.804;2022-08-21T06:00:36;21.20;99.90
28608;DHT22;15802;45.654;13.804;2022-08-21T06:03:02;21.20;99.90
28608;DHT22;15802;45.654;13.804;2022-08-21T06:05:28;21.30;99.90
28608;DHT22;15802;45.654;13.804;2022-08-21T06:07:54;21.40;99.90
28608;DHT22;15802;45.654;13.804;2022-08-21T06:10:19;21.50;99.90
28608;DHT22;15802;45.654;13.804;2022-08-21T06:12:45;21.50;99.90
28608;DHT22;15802;45.654;13.804;2022-08-21T06:15:11;21.60;99.90
28608;DHT22;15802;45.654;13.804;2022-08-21T06:17:37;21.60;99.90
28608;DHT22;15802;45.654;13.804;2022-08-21T06:20:03;21.60;99.90
28608;DHT22;15802;45.654;13.804;2022-08-21T06:22:29;21.70;99.90
28608;DHT22;15802;45.654;13.804;2022-08-21T06:24:55;21.80;99.90
28608;DHT22;15802;45.654;13.804;2022-08-21T06:27:21;21.90;99.90
28608;DHT22;15802;45.654;13.804;2022-08-21T06:29:47;22.00;99.90
28608;DHT22;15802;45.654;13.804;2022-08-21T06:32:12;22.10;99.90
28608;DHT22;15802;45.654;13.804;2022-08-21T06:34:39;22.20;99.90
28608;DHT22;15802;45.654;13.804;2022-08-21T06:37:05;22.30;99.90
28608;DHT22;15802;45.654;13.804;2022-08-21T06:39:31;22.40;99.90
28608;DHT22;15802;45.654;13.804;2022-08-21T06:41:57;22.60;99.90
28608;DHT22;15802;45.654;13.804;2022-08-21T06:44:23;22.70;99.90
28608;DHT22;15802;45.654;13.804;2022-08-21T06:46:49;22.80;99.90
28608;DHT22;15802;45.654;13.804;2022-08-21T06:49:15;22.90;99.90
28608;DHT22;15802;45.654;13.804;2022-08-21T06:51:40;23.10;99.90
28608;DHT22;15802;45.654;13.804;2022-08-21T06:54:06;23.10;99.90
28608;DHT22;15802;45.654;13.804;2022-08-21T06:56:32;23.10;99.90
28608;DHT22;15802;45.654;13.804;2022-08-21T06:58:58;23.20;99.90
28608;DHT22;15802;45.654;13.804;2022-08-21T07:01:25;23.20;99.90
28608;DHT22;15802;45.654;13.804;2022-08-21T07:03:51;23.40;99.90
28608;DHT22;15802;45.654;13.804;2022-08-21T07:06:17;23.50;99.90
28608;DHT22;15802;45.654;13.804;2022-08-21T07:08:43;23.60;99.90
28608;DHT22;15802;45.654;13.804;2022-08-21T07:11:11;23.80;99.90
28608;DHT22;15802;45.654;13.804;2022-08-21T07:13:38;23.90;99.90
28608;DHT22;15802;45.654;13.804;2022-08-21T07:16:04;24.10;99.90
28608;DHT22;15802;45.654;13.804;2022-08-21T07:18:30;24.30;99.90
28608;DHT22;15802;45.654;13.804;2022-08-21T07:20:56;24.40;99.90
28608;DHT22;15802;45.654;13.804;2022-08-21T07:23:23;24.60;99.90
28608;DHT22;15802;45.654;13.804;2022-08-21T07:25:50;24.60;99.90
28608;DHT22;15802;45.654;13.804;2022-08-21T07:28:16;24.60;99.90
28608;DHT22;15802;45.654;13.804;2022-08-21T07:30:42;24.60;99.90
28608;DHT22;15802;45.654;13.804;2022-08-21T07:33:07;24.60;99.90
28608;DHT22;15802;45.654;13.804;2022-08-21T07:35:33;24.80;99.90
28608;DHT22;15802;45.654;13.804;2022-08-21T07:37:59;24.90;99.90
28608;DHT22;15802;45.654;13.804;2022-08-21T07:40:24;24.90;99.90
28608;DHT22;15802;45.654;13.804;2022-08-21T07:42:50;24.90;99.90
28608;DHT22;15802;45.654;13.804;2022-08-21T07:45:19;24.90;99.90
28608;DHT22;15802;45.654;13.804;2022-08-21T07:47:46;25.00;99.90
28608;DHT22;15802;45.654;13.804;2022-08-21T07:50:12;25.00;99.90
28608;DHT22;15802;45.654;13.804;2022-08-21T07:52:38;25.00;99.90
28608;DHT22;15802;45.654;13.804;2022-08-21T07:55:04;25.10;99.90
28608;DHT22;15802;45.654;13.804;2022-08-21T07:57:29;25.10;99.90
28608;DHT22;15802;45.654;13.804;2022-08-21T07:59:55;25.20;99.90
28608;DHT22;15802;45.654;13.804;2022-08-21T08:02:24;25.30;99.90
28608;DHT22;15802;45.654;13.804;2022-08-21T08:04:50;25.30;99.90
28608;DHT22;15802;45.654;13.804;2022-08-21T08:07:16;25.30;99.90
28608;DHT22;15802;45.654;13.804;2022-08-21T08:09:42;25.30;99.90
28608;DHT22;15802;45.654;13.804;2022-08-21T08:12:08;25.50;99.90
28608;DHT22;15802;45.654;13.804;2022-08-21T08:14:35;25.60;99.90
28608;DHT22;15802;45.654;13.804;2022-08-21T08:17:00;25.70;99.90
28608;DHT22;15802;45.654;13.804;2022-08-21T08:19:27;25.80;99.90
28608;DHT22;15802;45.654;13.804;2022-08-21T08:21:53;25.80;99.90
28608;DHT22;15802;45.654;13.804;2022-08-21T08:24:19;25.80;99.90
28608;DHT22;15802;45.654;13.804;2022-08-21T08:26:45;25.90;99.90
28608;DHT22;15802;45.654;13.804;2022-08-21T08:29:11;25.90;99.90
28608;DHT22;15802;45.654;13.804;2022-08-21T08:31:37;26.00;99.90
28608;DHT22;15802;45.654;13.804;2022-08-21T08:34:03;26.10;99.90
28608;DHT22;15802;45.654;13.804;2022-08-21T08:36:32;26.20;99.90
28608;DHT22;15802;45.654;13.804;2022-08-21T08:38:58;26.30;99.90
28608;DHT22;15802;45.654;13.804;2022-08-21T08:41:23;26.30;99.90
28608;DHT22;15802;45.654;13.804;2022-08-21T08:43:50;26.40;99.90
28608;DHT22;15802;45.654;13.804;2022-08-21T08:46:18;26.50;99.90
28608;DHT22;15802;45.654;13.804;2022-08-21T08:48:49;26.50;99.90
28608;DHT22;15802;45.654;13.804;2022-08-21T08:51:25;26.50;99.90
28608;DHT22;15802;45.654;13.804;2022-08-21T08:53:55;26.40;99.90
28608;DHT22;15802;45.654;13.804;2022-08-21T08:56:27;26.40;99.90
28608;DHT22;15802;45.654;13.804;2022-08-21T08:58:53;26.50;99.90
28608;DHT22;15802;45.654;13.804;2022-08-21T09:01:21;26.60;99.90
28608;DHT22;15802;45.654;13.804;2022-08-21T09:03:47;26.60;99.90
28608;DHT22;15802;45.654;13.804;2022-08-21T09:06:19;26.60;99.90
28608;DHT22;15802;45.654;13.804;2022-08-21T09:08:59;26.70;99.90
28608;DHT22;15802;45.654;13.804;2022-08-21T09:11:29;26.70;99.90
28608;DHT22;15802;45.654;13.804;2022-08-21T09:14:16;26.70;99.90
28608;DHT22;15802;45.654;13.804;2022-08-21T09:16:47;26.60;99.90
28608;DHT22;15802;45.654;13.804;2022-08-21T09:19:25;26.60;99.90
28608;DHT22;15802;45.654;13.804;2022-08-21T09:21:55;26.60;99.90
28608;DHT22;15802;45.654;13.804;2022-08-21T09:24:45;26.60;99.90
28608;DHT22;15802;45.654;13.804;2022-08-21T09:27:14;26.60;99.90
28608;DHT22;15802;45.654;13.804;2022-08-21T09:29:42;26.60;99.90
28608;DHT22;15802;45.654;13.804;2022-08-21T09:32:11;26.70;99.90
28608;DHT22;15802;45.654;13.804;2022-08-21T09:34:40;26.80;99.90
28608;DHT22;15802;45.654;13.804;2022-08-21T09:37:15;26.90;99.90
28608;DHT22;15802;45.654;13.804;2022-08-21T09:39:41;26.90;99.90
28608;DHT22;15802;45.654;13.804;2022-08-21T09:42:08;26.90;99.90
28608;DHT22;15802;45.654;13.804;2022-08-21T09:44:36;26.90;99.90
28608;DHT22;15802;45.654;13.804;2022-08-21T09:47:06;26.80;99.90
28608;DHT22;15802;45.654;13.804;2022-08-21T09:49:32;26.80;99.90
28608;DHT22;15802;45.654;13.804;2022-08-21T09:51:59;26.80;99.90
28608;DHT22;15802;45.654;13.804;2022-08-21T09:54:27;26.80;99.90
28608;DHT22;15802;45.654;13.804;2022-08-21T09:56:56;26.90;99.90
28608;DHT22;15802;45.654;13.804;2022-08-21T09:59:40;27.00;99.90
28608;DHT22;15802;45.654;13.804;2022-08-21T10:02:28;27.10;99.90
28608;DHT22;15802;45.654;13.804;2022-08-21T10:04:55;27.30;99.90
28608;DHT22;15802;45.654;13.804;2022-08-21T10:07:22;27.30;99.90
28608;DHT22;15802;45.654;13.804;2022-08-21T10:12:38;27.70;99.90
28608;DHT22;15802;45.654;13.804;2022-08-21T10:15:13;27.80;99.90
28608;DHT22;15802;45.654;13.804;2022-08-21T10:17:44;28.00;99.90
28608;DHT22;15802;45.654;13.804;2022-08-21T10:20:14;28.30;99.90
28608;DHT22;15802;45.654;13.804;2022-08-21T10:22:48;28.50;99.90
28608;DHT22;15802;45.654;13.804;2022-08-21T10:25:18;28.60;99.90
28608;DHT22;15802;45.654;13.804;2022-08-21T10:30:41;28.50;99.90
28608;DHT22;15802;45.654;13.804;2022-08-21T10:35:58;28.20;99.90
28608;DHT22;15802;45.654;13.804;2022-08-21T10:44:05;28.00;99.90
28608;DHT22;15802;45.654;13.804;2022-08-21T10:46:37;28.00;99.90
28608;DHT22;15802;45.654;13.804;2022-08-21T10:49:14;28.20;99.90
28608;DHT22;15802;45.654;13.804;2022-08-21T10:51:44;28.20;99.90
28608;DHT22;15802;45.654;13.804;2022-08-21T10:54:25;28.40;99.90
28608;DHT22;15802;45.654;13.804;2022-08-21T10:56:55;28.60;99.90
28608;DHT22;15802;45.654;13.804;2022-08-21T10:59:25;28.80;99.90
28608;DHT22;15802;45.654;13.804;2022-08-21T11:01:54;28.70;99.90
28608;DHT22;15802;45.654;13.804;2022-08-21T11:04:24;28.70;99.90
28608;DHT22;15802;45.654;13.804;2022-08-21T11:06:52;28.60;99.90
28608;DHT22;15802;45.654;13.804;2022-08-21T11:09:20;28.50;99.90
28608;DHT22;15802;45.654;13.804;2022-08-21T11:12:23;28.40;99.90
28608;DHT22;15802;45.654;13.804;2022-08-21T11:14:47;28.20;99.90
28608;DHT22;15802;45.654;13.804;2022-08-21T11:17:15;27.90;99.90
28608;DHT22;15802;45.654;13.804;2022-08-21T11:19:53;27.70;99.90
28608;DHT22;15802;45.654;13.804;2022-08-21T11:22:23;27.70;99.90
28608;DHT22;15802;45.654;13.804;2022-08-21T11:24:55;27.60;99.90
28608;DHT22;15802;45.654;13.804;2022-08-21T11:27:24;27.60;99.90
28608;DHT22;15802;45.654;13.804;2022-08-21T11:29:52;27.60;99.90
28608;DHT22;15802;45.654;13.804;2022-08-21T11:35:10;27.50;99.90
28608;DHT22;15802;45.654;13.804;2022-08-21T11:37:45;27.70;99.90
28608;DHT22;15802;45.654;13.804;2022-08-21T11:40:19;27.90;99.90
28608;DHT22;15802;45.654;13.804;2022-08-21T11:42:52;28.10;99.90
28608;DHT22;15802;45.654;13.804;2022-08-21T11:45:26;28.30;99.90
28608;DHT22;15802;45.654;13.804;2022-08-21T11:50:38;28.40;99.90
28608;DHT22;15802;45.654;13.804;2022-08-21T11:53:31;28.40;99.90
28608;DHT22;15802;45.654;13.804;2022-08-21T11:56:00;28.50;99.90
28608;DHT22;15802;45.654;13.804;2022-08-21T11:58:35;28.70;99.90
28608;DHT22;15802;45.654;13.804;2022-08-21T12:01:06;28.80;99.90
28608;DHT22;15802;45.654;13.804;2022-08-21T12:03:34;28.80;99.90
28608;DHT22;15802;45.654;13.804;2022-08-21T12:06:02;29.00;99.90
28608;DHT22;15802;45.654;13.804;2022-08-21T12:08:32;28.90;99.90
28608;DHT22;15802;45.654;13.804;2022-08-21T12:11:06;28.80;99.90
28608;DHT22;15802;45.654;13.804;2022-08-21T12:13:37;28.70;99.90
28608;DHT22;15802;45.654;13.804;2022-08-21T12:16:07;28.60;99.90
28608;DHT22;15802;45.654;13.804;2022-08-21T12:18:33;28.80;99.90
28608;DHT22;15802;45.654;13.804;2022-08-21T12:21:02;28.90;99.90
28608;DHT22;15802;45.654;13.804;2022-08-21T12:23:30;29.00;99.90
28608;DHT22;15802;45.654;13.804;2022-08-21T12:26:10;29.20;99.90
28608;DHT22;15802;45.654;13.804;2022-08-21T12:28:39;29.20;99.90
28608;DHT22;15802;45.654;13.804;2022-08-21T12:31:16;29.20;99.90
28608;DHT22;15802;45.654;13.804;2022-08-21T12:33:42;29.10;99.90
28608;DHT22;15802;45.654;13.804;2022-08-21T12:36:15;29.30;99.90
28608;DHT22;15802;45.654;13.804;2022-08-21T12:38:48;29.50;99.90
28608;DHT22;15802;45.654;13.804;2022-08-21T12:41:17;29.50;99.90
28608;DHT22;15802;45.654;13.804;2022-08-21T12:43:47;29.50;99.90
28608;DHT22;15802;45.654;13.804;2022-08-21T12:46:17;29.60;99.90
28608;DHT22;15802;45.654;13.804;2022-08-21T12:48:48;29.60;99.90
28608;DHT22;15802;45.654;13.804;2022-08-21T12:51:16;29.50;99.90
28608;DHT22;15802;45.654;13.804;2022-08-21T12:53:48;29.50;99.90
28608;DHT22;15802;45.654;13.804;2022-08-21T12:56:15;29.30;99.90
28608;DHT22;15802;45.654;13.804;2022-08-21T12:58:46;29.40;99.90
28608;DHT22;15802;45.654;13.804;2022-08-21T13:01:17;29.50;99.90
28608;DHT22;15802;45.654;13.804;2022-08-21T13:03:45;29.50;99.90
28608;DHT22;15802;45.654;13.804;2022-08-21T13:06:14;29.50;99.90
28608;DHT22;15802;45.654;13.804;2022-08-21T13:08:41;29.60;99.90
28608;DHT22;15802;45.654;13.804;2022-08-21T13:11:08;29.60;99.90
28608;DHT22;15802;45.654;13.804;2022-08-21T13:13:35;29.70;99.90
28608;DHT22;15802;45.654;13.804;2022-08-21T13:16:04;29.50;99.90
28608;DHT22;15802;45.654;13.804;2022-08-21T13:18:39;29.40;99.90
28608;DHT22;15802;45.654;13.804;2022-08-21T13:21:15;29.40;99.90
28608;DHT22;15802;45.654;13.804;2022-08-21T13:23:41;29.40;99.90
28608;DHT22;15802;45.654;13.804;2022-08-21T13:26:15;29.40;99.90
28608;DHT22;15802;45.654;13.804;2022-08-21T13:28:41;29.10;99.90
28608;DHT22;15802;45.654;13.804;2022-08-21T13:31:09;28.80;99.90
28608;DHT22;15802;45.654;13.804;2022-08-21T13:33:35;28.80;99.90
28608;DHT22;15802;45.654;13.804;2022-08-21T13:36:09;28.70;99.90
28608;DHT22;15802;45.654;13.804;2022-08-21T13:38:35;28.60;99.90
28608;DHT22;15802;45.654;13.804;2022-08-21T13:41:03;28.60;99.90
28608;DHT22;15802;45.654;13.804;2022-08-21T13:43:34;28.70;99.90
28608;DHT22;15802;45.654;13.804;2022-08-21T13:46:00;28.60;99.90
28608;DHT22;15802;45.654;13.804;2022-08-21T13:48:28;28.70;99.90
28608;DHT22;15802;45.654;13.804;2022-08-21T13:50:55;28.60;99.90
28608;DHT22;15802;45.654;13.804;2022-08-21T13:56:05;28.40;99.90
28608;DHT22;15802;45.654;13.804;2022-08-21T13:58:33;28.50;99.90
28608;DHT22;15802;45.654;13.804;2022-08-21T14:00:59;28.50;99.90
28608;DHT22;15802;45.654;13.804;2022-08-21T14:03:27;28.30;99.90
28608;DHT22;15802;45.654;13.804;2022-08-21T14:05:54;28.30;99.90
28608;DHT22;15802;45.654;13.804;2022-08-21T14:08:29;28.30;99.90
28608;DHT22;15802;45.654;13.804;2022-08-21T14:10:57;28.50;99.90
28608;DHT22;15802;45.654;13.804;2022-08-21T14:13:32;28.60;99.90
28608;DHT22;15802;45.654;13.804;2022-08-21T14:16:00;28.60;99.90
28608;DHT22;15802;45.654;13.804;2022-08-21T14:18:26;28.70;99.90
28608;DHT22;15802;45.654;13.804;2022-08-21T14:20:56;28.80;99.90
28608;DHT22;15802;45.654;13.804;2022-08-21T14:23:28;28.80;99.90
28608;DHT22;15802;45.654;13.804;2022-08-21T14:25:54;28.80;99.90
28608;DHT22;15802;45.654;13.804;2022-08-21T14:28:24;28.80;99.90
28608;DHT22;15802;45.654;13.804;2022-08-21T14:30:51;28.80;99.90
28608;DHT22;15802;45.654;13.804;2022-08-21T14:33:20;28.90;99.90
28608;DHT22;15802;45.654;13.804;2022-08-21T14:35:47;28.90;99.90
28608;DHT22;15802;45.654;13.804;2022-08-21T14:38:13;29.00;99.90
28608;DHT22;15802;45.654;13.804;2022-08-21T14:40:39;29.00;99.90
28608;DHT22;15802;45.654;13.804;2022-08-21T14:43:05;29.00;99.90
28608;DHT22;15802;45.654;13.804;2022-08-21T14:45:33;28.90;99.90
28608;DHT22;15802;45.654;13.804;2022-08-21T14:47:59;28.80;99.90
28608;DHT22;15802;45.654;13.804;2022-08-21T14:50:25;28.70;99.90
28608;DHT22;15802;45.654;13.804;2022-08-21T14:52:51;28.70;99.90
28608;DHT22;15802;45.654;13.804;2022-08-21T14:55:17;28.60;99.90
28608;DHT22;15802;45.654;13.804;2022-08-21T14:57:44;28.50;99.90
28608;DHT22;15802;45.654;13.804;2022-08-21T15:00:11;28.50;99.90
28608;DHT22;15802;45.654;13.804;2022-08-21T15:02:37;28.50;99.90
28608;DHT22;15802;45.654;13.804;2022-08-21T15:05:03;28.50;99.90
28608;DHT22;15802;45.654;13.804;2022-08-21T15:07:29;28.40;99.90
28608;DHT22;15802;45.654;13.804;2022-08-21T15:09:55;28.30;99.90
28608;DHT22;15802;45.654;13.804;2022-08-21T15:12:20;28.20;99.90
28608;DHT22;15802;45.654;13.804;2022-08-21T15:14:46;28.10;99.90
28608;DHT22;15802;45.654;13.804;2022-08-21T15:17:12;28.10;99.90
28608;DHT22;15802;45.654;13.804;2022-08-21T15:19:38;28.00;99.90
28608;DHT22;15802;45.654;13.804;2022-08-21T15:22:05;27.80;99.90
28608;DHT22;15802;45.654;13.804;2022-08-21T15:24:31;27.70;99.90
28608;DHT22;15802;45.654;13.804;2022-08-21T15:26:58;27.50;99.90
28608;DHT22;15802;45.654;13.804;2022-08-21T15:29:24;27.30;99.90
28608;DHT22;15802;45.654;13.804;2022-08-21T15:31:53;27.10;99.90
28608;DHT22;15802;45.654;13.804;2022-08-21T15:34:19;26.80;99.90
28608;DHT22;15802;45.654;13.804;2022-08-21T15:36:45;26.40;99.90
28608;DHT22;15802;45.654;13.804;2022-08-21T15:39:11;26.10;99.90
28608;DHT22;15802;45.654;13.804;2022-08-21T15:41:37;25.90;99.90